createdAt,value
2023-05-19T00:02:01.078Z,3.15
2023-05-19T00:04:33.702Z,0.40
2023-05-19T00:07:08.221Z,0.98
2023-05-19T00:09:42.602Z,1.85
2023-05-19T00:12:14.991Z,1.33
2023-05-19T00:14:46.921Z,1.27
2023-05-19T00:17:18.832Z,2.83
2023-05-19T00:19:50.414Z,1.13
2023-05-19T00:22:22.087Z,0.57
2023-05-19T00:24:53.625Z,2.55
2023-05-19T00:27:25.280Z,0.82
2023-05-19T00:29:56.813Z,3.53
2023-05-19T00:32:28.408Z,2.90
2023-05-19T00:35:07.150Z,1.52
2023-05-19T00:37:38.658Z,2.88
2023-05-19T00:40:10.804Z,1.27
2023-05-19T00:42:42.424Z,2.10
2023-05-19T00:45:14.092Z,1.23
2023-05-19T00:47:45.824Z,1.52
2023-05-19T00:50:17.473Z,3.08
2023-05-19T00:52:49.030Z,1.35
2023-05-19T00:55:28.943Z,1.77
2023-05-19T00:58:01.387Z,1.95
2023-05-19T01:00:34.013Z,2.47
2023-05-19T01:03:13.109Z,2.72
2023-05-19T01:05:44.993Z,3.28
2023-05-19T01:08:17.155Z,1.23
2023-05-19T01:10:48.889Z,1.90
2023-05-19T01:13:23.772Z,2.17
2023-05-19T01:16:08.997Z,1.80
2023-05-19T01:18:58.643Z,1.98
2023-05-19T01:22:13.110Z,2.75
2023-05-19T01:25:24.294Z,4.80
2023-05-19T01:28:55.242Z,2.75
2023-05-19T01:31:27.622Z,3.55
2023-05-19T01:34:04.758Z,2.22
2023-05-19T01:36:37.633Z,1.88
2023-05-19T01:39:09.501Z,4.60
2023-05-19T01:41:44.749Z,2.75
2023-05-19T01:44:16.503Z,3.65
2023-05-19T01:46:48.919Z,2.60
2023-05-19T01:49:20.690Z,3.60
2023-05-19T01:51:53.403Z,1.35
2023-05-19T01:54:25.198Z,1.75
2023-05-19T01:57:32.301Z,1.38
2023-05-19T02:00:28.422Z,2.17
2023-05-19T02:03:28.063Z,2.50
2023-05-19T02:06:18.422Z,1.65
2023-05-19T02:09:10.083Z,1.48
2023-05-19T02:12:30.684Z,3.05
2023-05-19T02:15:21.748Z,2.45
2023-05-19T02:17:55.483Z,3.03
2023-05-19T02:20:27.271Z,2.08
2023-05-19T02:22:58.920Z,1.45
2023-05-19T02:25:30.592Z,2.45
2023-05-19T02:28:02.262Z,3.13
2023-05-19T02:30:34.215Z,1.67
2023-05-19T02:33:06.617Z,1.85
2023-05-19T02:35:38.281Z,1.40
2023-05-19T02:38:09.974Z,4.57
2023-05-19T02:40:41.593Z,1.48
2023-05-19T02:43:13.312Z,1.65
2023-05-19T02:45:45.420Z,2.10
2023-05-19T02:48:17.029Z,3.70
2023-05-19T02:50:48.632Z,1.60
2023-05-19T02:53:20.296Z,1.60
2023-05-19T02:55:51.908Z,1.92
2023-05-19T02:58:23.541Z,1.83
2023-05-19T03:00:56.079Z,1.63
2023-05-19T03:03:28.802Z,1.67
2023-05-19T03:06:01.883Z,2.33
2023-05-19T03:08:33.481Z,1.92
2023-05-19T03:11:05.171Z,2.30
2023-05-19T03:13:36.754Z,5.05
2023-05-19T03:16:08.731Z,2.42
2023-05-19T03:18:41.778Z,2.80
2023-05-19T03:21:13.435Z,3.05
2023-05-19T03:23:45.021Z,2.85
2023-05-19T03:26:16.624Z,1.50
2023-05-19T03:28:48.269Z,2.97
2023-05-19T03:31:19.888Z,3.30
2023-05-19T03:33:51.473Z,3.03
2023-05-19T03:36:23.222Z,5.85
2023-05-19T03:38:54.844Z,4.03
2023-05-19T03:41:26.497Z,4.15
2023-05-19T03:43:58.139Z,4.70
2023-05-19T03:46:29.889Z,3.15
2023-05-19T03:49:01.604Z,3.72
2023-05-19T03:51:34.917Z,4.00
2023-05-19T03:54:06.828Z,3.78
2023-05-19T03:56:43.324Z,2.67
2023-05-19T03:59:16.252Z,4.32
2023-05-19T04:01:48.817Z,4.10
2023-05-19T04:04:21.670Z,3.38
2023-05-19T04:06:53.329Z,3.30
2023-05-19T04:09:24.987Z,3.38
2023-05-19T04:11:58.628Z,5.85
2023-05-19T04:14:30.223Z,4.68
2023-05-19T04:17:01.996Z,4.03
2023-05-19T04:19:33.650Z,4.03
2023-05-19T04:22:05.414Z,5.22
2023-05-19T04:24:37.011Z,3.67
2023-05-19T04:27:12.209Z,3.65
2023-05-19T04:29:46.122Z,5.50
2023-05-19T04:32:20.780Z,5.70
2023-05-19T04:34:52.484Z,5.63
2023-05-19T04:37:25.825Z,4.57
2023-05-19T04:39:57.433Z,5.80
2023-05-19T04:42:30.755Z,3.70
2023-05-19T04:45:05.343Z,3.80
2023-05-19T04:47:38.187Z,4.72
2023-05-19T04:50:13.030Z,5.85
2023-05-19T04:52:47.487Z,7.95
2023-05-19T04:55:19.089Z,4.95
2023-05-19T04:57:50.739Z,7.13
2023-05-19T05:00:22.417Z,7.28
2023-05-19T05:02:57.549Z,2.50
2023-05-19T05:05:29.249Z,5.15
2023-05-19T05:08:01.219Z,5.82
2023-05-19T05:10:32.979Z,4.35
2023-05-19T05:13:05.116Z,6.93
2023-05-19T05:15:36.990Z,5.63
2023-05-19T05:18:09.099Z,3.05
2023-05-19T05:20:43.173Z,5.85
2023-05-19T05:23:15.260Z,4.47
2023-05-19T05:25:47.399Z,5.25
2023-05-19T05:28:19.299Z,5.80
2023-05-19T05:30:51.040Z,9.15
2023-05-19T05:33:24.840Z,4.53
2023-05-19T05:35:57.125Z,3.83
2023-05-19T05:38:28.736Z,5.70
2023-05-19T05:41:02.606Z,7.45
2023-05-19T05:43:34.359Z,3.85
2023-05-19T05:46:06.117Z,4.88
2023-05-19T05:48:38.189Z,6.78
2023-05-19T05:51:12.679Z,4.30
2023-05-19T05:53:49.958Z,6.70
2023-05-19T05:56:22.381Z,6.53
2023-05-19T05:58:54.117Z,4.88
2023-05-19T06:01:26.026Z,3.65
2023-05-19T06:03:57.828Z,5.00
2023-05-19T06:06:29.511Z,5.15
2023-05-19T06:09:01.186Z,4.32
2023-05-19T06:11:32.898Z,5.78
2023-05-19T06:14:04.581Z,5.95
2023-05-19T06:16:36.303Z,6.15
2023-05-19T06:19:08.175Z,5.55
2023-05-19T06:21:39.840Z,5.63
2023-05-19T06:24:11.924Z,5.88
2023-05-19T06:26:43.622Z,3.92
2023-05-19T06:29:15.286Z,5.32
2023-05-19T06:31:47.048Z,3.53
2023-05-19T06:34:18.807Z,6.55
2023-05-19T06:36:50.449Z,5.07
2023-05-19T06:39:24.359Z,5.38
2023-05-19T06:41:56.011Z,5.95
2023-05-19T06:44:27.574Z,8.35
2023-05-19T06:46:59.228Z,5.15
2023-05-19T06:49:30.872Z,6.35
2023-05-19T06:52:06.086Z,7.03
2023-05-19T06:54:38.293Z,3.88
2023-05-19T06:57:17.512Z,4.85
2023-05-19T06:59:49.094Z,5.53
2023-05-19T07:02:20.919Z,5.10
2023-05-19T07:04:54.143Z,5.72
2023-05-19T07:07:26.758Z,4.85
2023-05-19T07:09:58.353Z,5.57
2023-05-19T07:12:29.998Z,3.92
2023-05-19T07:15:01.708Z,3.45
2023-05-19T07:17:33.383Z,6.45
2023-05-19T07:20:10.112Z,4.65
2023-05-19T07:22:41.808Z,4.85
2023-05-19T07:25:16.556Z,5.75
2023-05-19T07:27:48.261Z,4.93
2023-05-19T07:30:19.920Z,3.13
2023-05-19T07:32:51.863Z,6.60
2023-05-19T07:35:23.847Z,3.67
2023-05-19T07:37:55.631Z,4.78
2023-05-19T07:40:27.419Z,4.80
2023-05-19T07:42:59.059Z,2.58
2023-05-19T07:45:30.741Z,3.00
2023-05-19T07:48:02.411Z,7.97
2023-05-19T07:50:34.266Z,4.47
2023-05-19T07:53:06.204Z,4.07
2023-05-19T07:55:37.793Z,4.50
2023-05-19T07:58:09.431Z,4.82
2023-05-19T08:00:43.189Z,5.15
2023-05-19T08:03:17.853Z,6.78
2023-05-19T08:08:22.082Z,3.75
2023-05-19T08:10:53.842Z,3.40
2023-05-19T08:13:25.540Z,3.55
2023-05-19T08:15:59.881Z,4.97
2023-05-19T08:18:31.709Z,4.00
2023-05-19T08:21:03.621Z,5.65
2023-05-19T08:23:37.256Z,8.95
2023-05-19T08:26:08.883Z,8.40
2023-05-19T08:28:40.528Z,4.82
2023-05-19T08:31:14.251Z,3.67
2023-05-19T08:33:46.058Z,7.25
2023-05-19T08:36:18.375Z,4.15
2023-05-19T08:38:49.962Z,3.80
2023-05-19T08:41:23.269Z,3.63
2023-05-19T08:43:55.376Z,4.00
2023-05-19T08:46:28.717Z,6.18
2023-05-19T08:49:13.119Z,4.72
2023-05-19T08:52:00.340Z,7.78
2023-05-19T08:59:52.210Z,2.38
2023-05-19T09:02:24.491Z,5.32
2023-05-19T09:04:57.765Z,4.75
2023-05-19T09:07:35.558Z,5.93
2023-05-19T09:10:09.032Z,3.97
2023-05-19T09:12:45.462Z,3.83
2023-05-19T09:15:19.248Z,4.95
2023-05-19T09:17:51.063Z,4.70
2023-05-19T09:20:22.728Z,5.22
2023-05-19T09:22:54.319Z,4.47
2023-05-19T09:25:26.480Z,5.22
2023-05-19T09:27:58.124Z,4.45
2023-05-19T09:30:30.127Z,4.40
2023-05-19T09:33:01.975Z,5.70
2023-05-19T09:35:35.054Z,7.22
2023-05-19T09:38:06.920Z,3.83
2023-05-19T09:40:38.634Z,5.03
2023-05-19T09:43:10.330Z,4.53
2023-05-19T09:45:42.462Z,5.43
2023-05-19T09:48:17.155Z,3.80
2023-05-19T09:50:51.689Z,4.05
2023-05-19T09:53:27.408Z,6.15
2023-05-19T09:56:01.691Z,4.47
2023-05-19T09:58:35.628Z,4.25
2023-05-19T10:01:08.664Z,7.47
2023-05-19T10:03:41.646Z,6.80
2023-05-19T10:06:15.620Z,3.50
2023-05-19T10:08:48.123Z,3.97
2023-05-19T10:11:21.695Z,4.63
2023-05-19T10:13:53.351Z,4.63
2023-05-19T10:16:26.705Z,3.67
2023-05-19T10:19:00.871Z,5.88
2023-05-19T10:21:33.178Z,4.65
2023-05-19T10:24:05.225Z,3.45
2023-05-19T10:26:37.652Z,6.10
2023-05-19T10:29:10.701Z,6.72
2023-05-19T10:31:43.660Z,4.50
2023-05-19T10:34:59.327Z,4.60
2023-05-19T10:38:04.053Z,5.05
2023-05-19T10:41:00.143Z,5.15
2023-05-19T10:43:49.934Z,13.13
2023-05-19T10:46:27.189Z,5.85
2023-05-19T10:48:59.644Z,4.82
2023-05-19T10:51:32.379Z,3.75
2023-05-19T10:54:15.994Z,2.25
2023-05-19T10:56:47.621Z,4.05
2023-05-19T10:59:34.649Z,2.65
2023-05-19T11:02:08.858Z,5.25
2023-05-19T11:04:51.780Z,4.22
2023-05-19T11:07:24.862Z,2.90
2023-05-19T11:09:56.569Z,2.58
2023-05-19T11:12:28.351Z,4.82
2023-05-19T11:15:00.011Z,4.38
2023-05-19T11:17:33.164Z,4.05
2023-05-19T11:20:12.666Z,2.83
2023-05-19T11:23:07.391Z,2.25
2023-05-19T11:25:47.189Z,1.85
2023-05-19T11:28:25.952Z,3.38
2023-05-19T11:30:59.047Z,3.45
2023-05-19T11:33:32.655Z,4.93
2023-05-19T11:36:07.278Z,3.28
2023-05-19T11:38:38.964Z,2.42
2023-05-19T11:41:10.584Z,3.22
2023-05-19T11:43:42.506Z,4.00
2023-05-19T11:46:17.996Z,2.60
2023-05-19T11:48:50.537Z,3.65
2023-05-19T11:51:25.242Z,3.75
2023-05-19T11:53:56.868Z,3.10
2023-05-19T11:56:35.192Z,6.07
2023-05-19T11:59:07.045Z,2.42
2023-05-19T12:01:38.710Z,3.58
2023-05-19T12:04:10.622Z,3.85
2023-05-19T12:06:42.276Z,2.78
2023-05-19T12:09:15.113Z,3.28
2023-05-19T12:11:47.702Z,3.70
2023-05-19T12:14:19.490Z,2.63
2023-05-19T12:16:51.151Z,2.83
2023-05-19T12:19:25.888Z,2.10
2023-05-19T12:21:57.910Z,2.55
2023-05-19T12:24:30.679Z,3.40
2023-05-19T12:27:24.116Z,3.45
2023-05-19T12:29:59.540Z,5.70
2023-05-19T12:32:34.402Z,2.38
2023-05-19T12:35:07.186Z,2.35
2023-05-19T12:37:43.268Z,5.00
2023-05-19T12:40:18.066Z,4.25
2023-05-19T12:45:25.700Z,3.33
2023-05-19T12:47:57.800Z,4.82
2023-05-19T12:50:34.393Z,2.88
2023-05-19T12:53:11.342Z,4.60
2023-05-19T12:55:45.582Z,4.05
2023-05-19T12:58:17.332Z,4.38
2023-05-19T13:00:49.988Z,4.32
2023-05-19T13:03:24.546Z,8.50
2023-05-19T13:05:56.271Z,3.75
2023-05-19T13:08:27.955Z,7.45
2023-05-19T13:11:02.738Z,4.30
2023-05-19T13:13:34.426Z,4.35
2023-05-19T13:16:09.059Z,5.50
2023-05-19T13:18:40.746Z,5.47
2023-05-19T13:21:12.423Z,5.13
2023-05-19T13:23:44.016Z,6.57
2023-05-19T13:26:15.574Z,5.72
2023-05-19T13:28:47.907Z,5.47
2023-05-19T13:31:19.657Z,6.32
2023-05-19T13:33:51.273Z,5.07
2023-05-19T13:36:22.981Z,3.83
2023-05-19T13:38:54.824Z,4.45
2023-05-19T13:41:26.918Z,5.25
2023-05-19T13:43:59.592Z,5.40
2023-05-19T13:46:43.989Z,5.10
2023-05-19T13:49:17.484Z,5.55
2023-05-19T13:51:49.914Z,6.50
2023-05-19T13:54:21.600Z,5.82
2023-05-19T13:56:56.486Z,5.00
2023-05-19T13:59:28.414Z,5.60
2023-05-19T14:02:00.661Z,6.65
2023-05-19T14:04:32.347Z,4.78
2023-05-19T14:07:06.143Z,9.80
2023-05-19T14:09:37.844Z,5.68
2023-05-19T14:12:12.326Z,7.40
2023-05-19T14:14:43.941Z,5.57
2023-05-19T14:17:15.952Z,6.32
2023-05-19T14:19:53.277Z,7.22
2023-05-19T14:22:25.249Z,7.47
2023-05-19T14:24:59.055Z,6.63
2023-05-19T14:27:33.375Z,4.68
2023-05-19T14:30:06.043Z,4.47
2023-05-19T14:32:37.677Z,5.18
2023-05-19T14:35:09.672Z,7.10
2023-05-19T14:37:41.299Z,4.72
2023-05-19T14:40:13.304Z,4.82
2023-05-19T14:42:44.948Z,6.72
2023-05-19T14:45:16.712Z,4.47
2023-05-19T14:47:48.463Z,6.65
2023-05-19T14:50:20.469Z,4.53
2023-05-19T14:52:52.084Z,5.32
2023-05-19T14:55:23.812Z,4.45
2023-05-19T14:57:55.541Z,5.72
2023-05-19T15:00:27.249Z,6.00
2023-05-19T15:02:58.853Z,5.43
2023-05-19T15:05:30.617Z,5.57
2023-05-19T15:08:03.245Z,4.70
2023-05-19T15:10:36.082Z,7.18
2023-05-19T15:13:07.715Z,3.60
2023-05-19T15:15:39.303Z,5.50
2023-05-19T15:18:11.444Z,4.82
2023-05-19T15:20:43.741Z,5.10
2023-05-19T15:23:15.499Z,4.25
2023-05-19T15:25:47.131Z,5.95
2023-05-19T15:28:19.945Z,5.00
2023-05-19T15:30:51.929Z,5.45
2023-05-19T15:33:23.617Z,5.25
2023-05-19T15:35:55.419Z,6.18
2023-05-19T15:38:29.148Z,5.47
2023-05-19T15:41:07.852Z,5.93
2023-05-19T15:43:43.131Z,6.30
2023-05-19T15:46:16.045Z,4.90
2023-05-19T15:48:47.847Z,6.32
2023-05-19T15:51:19.554Z,5.43
2023-05-19T15:53:51.485Z,4.60
2023-05-19T15:56:23.075Z,5.53
2023-05-19T15:58:54.679Z,4.65
2023-05-19T16:01:26.463Z,6.55
2023-05-19T16:03:58.397Z,5.78
2023-05-19T16:06:32.911Z,4.80
2023-05-19T16:09:04.584Z,4.75
2023-05-19T16:11:36.292Z,8.85
2023-05-19T16:14:08.089Z,6.90
2023-05-19T16:16:39.923Z,5.28
2023-05-19T16:19:14.953Z,4.63
2023-05-19T16:24:18.452Z,5.82
2023-05-19T16:26:50.086Z,5.38
2023-05-19T16:29:21.763Z,7.32
2023-05-19T16:31:53.514Z,4.22
2023-05-19T16:34:25.233Z,5.82
2023-05-19T16:36:56.826Z,3.90
2023-05-19T16:39:28.433Z,6.72
2023-05-19T16:42:00.057Z,7.97
2023-05-19T16:44:31.826Z,5.10
2023-05-19T16:47:04.177Z,5.88
2023-05-19T16:49:35.980Z,5.35
2023-05-19T16:52:08.020Z,5.60
2023-05-19T16:54:39.870Z,8.05
2023-05-19T16:57:22.984Z,4.63
2023-05-19T16:59:54.639Z,9.25
2023-05-19T17:02:26.500Z,6.40
2023-05-19T17:04:58.404Z,7.63
2023-05-19T17:07:30.085Z,5.00
2023-05-19T17:10:01.722Z,4.88
2023-05-19T17:12:33.384Z,5.25
2023-05-19T17:15:05.817Z,4.15
2023-05-19T17:17:37.593Z,4.70
2023-05-19T17:20:10.185Z,5.38
2023-05-19T17:22:41.930Z,6.35
2023-05-19T17:25:13.519Z,5.63
2023-05-19T17:27:45.197Z,5.07
2023-05-19T17:30:16.812Z,5.60
2023-05-19T17:32:48.611Z,4.22
2023-05-19T17:35:20.754Z,5.78
2023-05-19T17:37:52.508Z,9.73
2023-05-19T17:40:24.241Z,5.53
2023-05-19T17:42:56.030Z,3.80
2023-05-19T17:45:27.788Z,5.35
2023-05-19T17:47:59.427Z,4.40
2023-05-19T17:50:31.340Z,6.25
2023-05-19T17:53:03.503Z,4.07
2023-05-19T17:55:35.813Z,5.13
2023-05-19T17:58:08.249Z,6.07
2023-05-19T18:00:40.336Z,5.78
2023-05-19T18:03:12.484Z,5.65
2023-05-19T18:05:45.533Z,4.32
2023-05-19T18:08:17.796Z,8.93
2023-05-19T18:10:51.693Z,4.90
2023-05-19T18:13:23.716Z,4.20
2023-05-19T18:15:55.625Z,4.38
2023-05-19T18:18:27.221Z,6.03
2023-05-19T18:21:00.924Z,3.85
2023-05-19T18:23:32.825Z,5.80
2023-05-19T18:26:04.489Z,4.15
2023-05-19T18:28:36.313Z,5.05
2023-05-19T18:31:17.431Z,4.25
2023-05-19T18:33:49.534Z,3.83
2023-05-19T18:36:21.272Z,4.00
2023-05-19T18:38:53.265Z,4.40
2023-05-19T18:41:25.689Z,4.63
2023-05-19T18:43:58.046Z,4.90
2023-05-19T18:46:29.959Z,4.47
2023-05-19T18:49:03.718Z,5.93
2023-05-19T18:51:36.124Z,4.85
2023-05-19T18:54:07.836Z,6.10
2023-05-19T18:56:39.665Z,4.15
2023-05-19T18:59:11.523Z,3.72
2023-05-19T19:01:43.141Z,9.52
2023-05-19T19:04:16.633Z,4.80
2023-05-19T19:06:54.520Z,5.65
2023-05-19T19:09:28.176Z,4.65
2023-05-19T19:12:02.915Z,5.25
2023-05-19T19:14:36.573Z,6.50
2023-05-19T19:17:08.329Z,4.30
2023-05-19T19:19:40.162Z,4.40
2023-05-19T19:22:12.578Z,6.22
2023-05-19T19:24:44.436Z,6.38
2023-05-19T19:27:17.710Z,6.32
2023-05-19T19:29:52.404Z,5.18
2023-05-19T19:32:24.694Z,4.70
2023-05-19T19:34:56.492Z,6.05
2023-05-19T19:37:30.192Z,5.88
2023-05-19T19:40:01.959Z,4.13
2023-05-19T19:42:33.766Z,6.53
2023-05-19T19:45:06.905Z,4.78
2023-05-19T19:47:38.591Z,6.47
2023-05-19T19:50:11.542Z,6.45
2023-05-19T19:52:43.230Z,5.03
2023-05-19T19:55:14.945Z,5.95
2023-05-19T19:57:49.268Z,5.50
2023-05-19T20:00:21.524Z,5.13
2023-05-19T20:03:04.289Z,5.07
2023-05-19T20:05:38.401Z,7.15
2023-05-19T20:08:14.156Z,7.68
2023-05-19T20:10:48.219Z,6.60
2023-05-19T20:13:22.840Z,5.05
2023-05-19T20:15:54.472Z,6.03
2023-05-19T20:18:27.861Z,8.20
2023-05-19T20:20:59.516Z,6.43
2023-05-19T20:23:31.092Z,5.70
2023-05-19T20:26:11.077Z,5.65
2023-05-19T20:28:47.662Z,4.95
2023-05-19T20:31:21.536Z,5.25
2023-05-19T20:33:53.235Z,5.15
2023-05-19T20:36:24.934Z,5.38
2023-05-19T20:38:56.525Z,7.63
2023-05-19T20:41:28.190Z,8.07
2023-05-19T20:43:59.885Z,6.15
2023-05-19T20:46:34.607Z,7.47
2023-05-19T20:49:06.449Z,5.70
2023-05-19T20:51:38.068Z,5.45
2023-05-19T20:54:09.852Z,5.45
2023-05-19T20:56:43.756Z,5.07
2023-05-19T20:59:17.408Z,6.13
2023-05-19T21:01:49.102Z,6.55
2023-05-19T21:04:24.075Z,7.63
2023-05-19T21:09:27.407Z,11.40
2023-05-19T21:11:59.035Z,6.78
2023-05-19T21:14:30.694Z,7.00
2023-05-19T21:17:02.383Z,8.32
2023-05-19T21:19:38.495Z,6.88
2023-05-19T21:22:10.209Z,7.28
2023-05-19T21:24:41.871Z,8.65
2023-05-19T21:27:13.537Z,6.38
2023-05-19T21:29:45.113Z,6.55
2023-05-19T21:32:16.723Z,6.65
2023-05-19T21:34:48.908Z,7.47
2023-05-19T21:37:21.663Z,6.20
2023-05-19T21:39:53.268Z,6.60
2023-05-19T21:42:24.911Z,7.25
2023-05-19T21:44:56.572Z,7.82
2023-05-19T21:47:28.566Z,8.95
2023-05-19T21:50:00.205Z,6.80
2023-05-19T21:52:31.880Z,6.65
2023-05-19T21:55:03.829Z,6.15
2023-05-19T21:57:35.443Z,6.57
2023-05-19T22:00:08.511Z,7.28
2023-05-19T22:02:40.511Z,6.97
2023-05-19T22:05:17.421Z,11.40
2023-05-19T22:07:49.048Z,6.57
2023-05-19T22:10:26.783Z,6.60
2023-05-19T22:12:58.700Z,6.65
2023-05-19T22:15:30.336Z,8.27
2023-05-19T22:18:02.083Z,9.05
2023-05-19T22:20:34.346Z,10.25
2023-05-19T22:23:06.183Z,6.95
2023-05-19T22:25:38.061Z,7.38
2023-05-19T22:28:09.684Z,6.70
2023-05-19T22:30:42.293Z,6.25
2023-05-19T22:33:14.119Z,8.40
2023-05-19T22:35:49.501Z,10.85
2023-05-19T22:38:21.051Z,7.70
2023-05-19T22:40:52.670Z,7.47
2023-05-19T22:43:24.393Z,6.72
2023-05-19T22:45:56.113Z,8.50
2023-05-19T22:48:27.735Z,9.13
2023-05-19T22:50:59.457Z,8.63
2023-05-19T22:53:31.095Z,7.45
2023-05-19T22:56:02.714Z,9.00
2023-05-19T22:58:34.430Z,6.55
2023-05-19T23:01:06.213Z,6.25
2023-05-19T23:03:37.858Z,7.50
2023-05-19T23:06:12.540Z,7.10
2023-05-19T23:08:46.817Z,7.90
2023-05-19T23:11:18.443Z,6.93
2023-05-19T23:13:50.011Z,7.88
2023-05-19T23:16:21.946Z,6.57
2023-05-19T23:18:53.577Z,6.93
2023-05-19T23:21:25.416Z,6.88
2023-05-19T23:23:57.067Z,7.75
2023-05-19T23:26:28.737Z,8.52
2023-05-19T23:29:00.528Z,8.02
2023-05-19T23:31:32.204Z,5.65
2023-05-19T23:34:07.558Z,8.70
2023-05-19T23:36:39.168Z,6.40
2023-05-19T23:39:11.401Z,7.60
2023-05-19T23:41:43.039Z,7.78
2023-05-19T23:44:14.647Z,6.45
2023-05-19T23:46:46.474Z,9.18
2023-05-19T23:49:18.348Z,8.63
2023-05-19T23:51:50.105Z,6.57
2023-05-19T23:54:21.876Z,7.55
2023-05-19T23:56:54.572Z,9.63
2023-05-19T23:59:26.233Z,7.90
